createdAt,value
2022-10-06T00:05:42.158Z,71.96
2022-10-06T00:55:27.086Z,72.33
2022-10-06T01:00:36.223Z,72.47
2022-10-06T01:05:48.619Z,72.47
2022-10-06T01:18:32.587Z,72.51
2022-10-06T01:23:37.406Z,72.63
2022-10-06T01:29:07.508Z,72.74
2022-10-06T01:34:20.030Z,72.83
2022-10-06T01:40:31.798Z,72.82
2022-10-06T01:47:03.776Z,72.97
2022-10-06T01:52:47.655Z,72.90
2022-10-06T01:58:33.726Z,73.12
2022-10-06T02:03:53.474Z,73.19
2022-10-06T02:09:23.184Z,73.12
2022-10-06T02:14:44.120Z,73.17
2022-10-06T02:19:56.916Z,73.23
2022-10-06T02:26:01.390Z,73.38
2022-10-06T02:32:45.853Z,73.47
2022-10-06T02:38:13.171Z,73.63
2022-10-06T02:44:16.074Z,73.78
2022-10-06T02:49:32.297Z,73.62
2022-10-06T02:54:39.900Z,73.87
2022-10-06T02:59:51.506Z,73.90
2022-10-06T03:12:12.237Z,74.02
2022-10-06T03:17:42.083Z,74.14
2022-10-06T03:23:09.195Z,74.20
2022-10-06T03:28:56.325Z,74.18
2022-10-06T03:34:45.923Z,74.26
2022-10-06T03:41:19.012Z,74.13
2022-10-06T03:47:17.283Z,74.46
2022-10-06T03:52:28.193Z,74.37
2022-10-06T03:57:40.506Z,74.50
2022-10-06T04:02:46.680Z,74.62
2022-10-06T04:07:58.490Z,74.65
2022-10-06T04:13:10.944Z,74.63
2022-10-06T04:18:20.249Z,74.77
2022-10-06T04:23:24.656Z,74.60
2022-10-06T04:28:36.375Z,74.62
2022-10-06T04:33:42.321Z,74.75
2022-10-06T04:38:46.556Z,75.03
2022-10-06T04:44:06.395Z,75.02
2022-10-06T04:49:34.334Z,75.08
2022-10-06T04:54:48.926Z,75.32
2022-10-06T05:00:26.704Z,75.21
2022-10-06T05:05:36.101Z,75.55
2022-10-06T05:10:46.895Z,75.55
2022-10-06T05:16:00.674Z,75.50
2022-10-06T05:21:13.194Z,75.51
2022-10-06T05:26:21.297Z,75.55
2022-10-06T05:31:48.617Z,75.77
2022-10-06T05:37:26.273Z,75.81
2022-10-06T05:42:34.706Z,76.01
2022-10-06T05:47:41.849Z,76.15
2022-10-06T05:52:46.450Z,76.31
2022-10-06T05:57:50.821Z,76.36
2022-10-06T06:02:54.688Z,76.54
2022-10-06T06:07:58.723Z,76.63
2022-10-06T06:13:02.666Z,76.56
2022-10-06T06:18:32.358Z,76.44
2022-10-06T06:23:41.107Z,76.39
2022-10-06T06:28:50.517Z,76.33
2022-10-06T06:33:56.391Z,76.06
2022-10-06T06:39:05.623Z,75.91
2022-10-06T06:44:16.433Z,75.76
2022-10-06T06:49:30.308Z,75.65
2022-10-06T06:54:39.932Z,75.37
2022-10-06T06:59:50.164Z,75.20
2022-10-06T07:04:54.734Z,75.13
2022-10-06T07:09:58.837Z,75.05
2022-10-06T07:15:25.428Z,75.02
2022-10-06T07:20:48.736Z,75.31
2022-10-06T07:25:53.063Z,75.14
2022-10-06T07:31:00.138Z,75.25
2022-10-06T07:36:05.976Z,75.16
2022-10-06T07:41:25.933Z,75.01
2022-10-06T07:46:35.833Z,74.94
2022-10-06T07:51:44.023Z,74.97
2022-10-06T07:56:48.023Z,74.94
2022-10-06T08:01:52.348Z,74.74
2022-10-06T08:06:57.356Z,74.62
2022-10-06T08:12:20.968Z,74.34
2022-10-06T08:17:24.635Z,74.18
2022-10-06T08:22:29.579Z,74.10
2022-10-06T08:27:34.378Z,73.90
2022-10-06T08:32:38.590Z,73.84
2022-10-06T08:37:42.526Z,73.70
2022-10-06T08:42:52.827Z,73.76
2022-10-06T08:48:03.115Z,73.62
2022-10-06T08:53:19.005Z,73.54
2022-10-06T08:58:35.793Z,72.74
2022-10-06T09:03:39.870Z,72.32
2022-10-06T09:08:51.975Z,71.97
2022-10-06T09:14:01.914Z,71.99
2022-10-06T09:19:13.985Z,71.97
2022-10-06T09:24:20.298Z,71.83
2022-10-06T09:29:24.973Z,70.79
2022-10-06T09:34:37.229Z,70.23
2022-10-06T09:39:43.456Z,70.27
2022-10-06T09:45:01.958Z,69.87
2022-10-06T09:50:23.308Z,69.38
2022-10-06T09:55:30.501Z,69.14
2022-10-06T10:00:38.904Z,68.92
2022-10-06T10:05:49.473Z,69.10
2022-10-06T10:11:36.002Z,69.02
2022-10-06T10:16:39.622Z,68.60
2022-10-06T10:21:45.626Z,68.23
2022-10-06T10:26:56.627Z,67.95
2022-10-06T10:32:15.206Z,67.67
2022-10-06T10:37:30.848Z,67.35
2022-10-06T10:42:41.742Z,66.98
2022-10-06T10:47:49.221Z,66.43
2022-10-06T10:52:57.830Z,66.10
2022-10-06T10:58:10.312Z,65.77
2022-10-06T11:03:14.081Z,65.52
2022-10-06T11:08:22.530Z,65.35
2022-10-06T11:13:35.886Z,65.27
2022-10-06T11:18:54.077Z,65.03
2022-10-06T11:24:04.510Z,64.95
2022-10-06T11:29:21.915Z,64.95
2022-10-06T11:34:25.539Z,64.68
2022-10-06T11:39:43.510Z,64.43
2022-10-06T11:44:52.326Z,64.10
2022-10-06T11:49:58.192Z,63.97
2022-10-06T11:55:13.393Z,63.56
2022-10-06T12:00:46.117Z,63.44
2022-10-06T12:05:56.083Z,63.11
2022-10-06T12:11:01.289Z,62.72
2022-10-06T12:22:00.075Z,62.06
2022-10-06T12:27:26.219Z,62.00
2022-10-06T12:32:49.200Z,61.89
2022-10-06T12:37:54.765Z,61.77
2022-10-06T12:43:22.288Z,61.40
2022-10-06T12:48:36.214Z,61.26
2022-10-06T12:53:51.314Z,61.27
2022-10-06T12:58:56.021Z,60.94
2022-10-06T13:04:03.440Z,60.79
2022-10-06T13:09:15.195Z,60.63
2022-10-06T13:14:28.026Z,60.04
2022-10-06T13:19:35.495Z,59.89
2022-10-06T13:24:49.163Z,59.75
2022-10-06T13:30:25.797Z,59.73
2022-10-06T13:35:30.526Z,59.46
2022-10-06T13:40:44.542Z,59.50
2022-10-06T13:45:49.363Z,59.27
2022-10-06T13:51:00.469Z,59.17
2022-10-06T13:56:05.891Z,58.99
2022-10-06T14:01:10.469Z,58.92
2022-10-06T14:06:20.874Z,58.65
2022-10-06T14:11:29.391Z,58.58
2022-10-06T14:16:35.011Z,58.42
2022-10-06T14:21:45.388Z,58.41
2022-10-06T14:27:09.553Z,58.36
2022-10-06T14:32:39.683Z,58.18
2022-10-06T14:37:43.472Z,58.05
2022-10-06T14:47:52.645Z,57.50
2022-10-06T14:52:58.243Z,57.58
2022-10-06T14:58:03.071Z,57.45
2022-10-06T15:03:07.199Z,57.36
2022-10-06T15:08:12.772Z,57.10
2022-10-06T15:13:17.478Z,57.02
2022-10-06T15:18:22.293Z,56.97
2022-10-06T15:23:26.039Z,56.91
2022-10-06T15:28:48.412Z,57.00
2022-10-06T15:33:54.410Z,56.79
2022-10-06T15:38:59.370Z,56.84
2022-10-06T15:44:04.805Z,56.71
2022-10-06T15:49:11.712Z,56.63
2022-10-06T15:54:20.211Z,56.71
2022-10-06T15:59:26.260Z,56.60
2022-10-06T16:04:38.505Z,56.65
2022-10-06T16:09:48.164Z,56.63
2022-10-06T16:14:52.711Z,56.59
2022-10-06T16:19:57.371Z,56.71
2022-10-06T16:25:01.283Z,56.80
2022-10-06T16:30:10.576Z,56.75
2022-10-06T16:35:18.530Z,56.94
2022-10-06T16:40:23.150Z,57.06
2022-10-06T16:45:29.686Z,57.16
2022-10-06T16:50:36.755Z,57.40
2022-10-06T16:55:47.326Z,57.51
2022-10-06T17:00:58.443Z,57.45
2022-10-06T17:06:10.069Z,57.76
2022-10-06T17:11:17.663Z,57.79
2022-10-06T17:16:23.705Z,58.22
2022-10-06T17:21:44.909Z,58.24
2022-10-06T17:26:52.284Z,58.35
2022-10-06T17:31:59.402Z,58.40
2022-10-06T17:37:03.094Z,58.66
2022-10-06T17:42:07.762Z,58.72
2022-10-06T17:47:12.226Z,58.75
2022-10-06T17:52:24.368Z,59.07
2022-10-06T17:57:30.637Z,59.04
2022-10-06T18:02:34.491Z,59.40
2022-10-06T18:07:39.497Z,59.60
2022-10-06T18:12:47.945Z,59.65
2022-10-06T18:17:53.011Z,59.88
2022-10-06T18:22:57.056Z,59.98
2022-10-06T18:28:01.280Z,60.02
2022-10-06T18:38:36.613Z,60.57
2022-10-06T18:43:41.854Z,60.81
2022-10-06T18:48:54.629Z,60.84
2022-10-06T18:53:59.751Z,61.04
2022-10-06T18:59:10.111Z,61.15
2022-10-06T19:04:15.679Z,61.51
2022-10-06T19:09:23.026Z,61.62
2022-10-06T19:14:31.062Z,61.60
2022-10-06T19:19:36.626Z,61.87
2022-10-06T19:24:42.126Z,61.74
2022-10-06T19:29:51.071Z,62.12
2022-10-06T19:34:58.358Z,62.10
2022-10-06T19:40:02.556Z,62.28
2022-10-06T19:45:11.757Z,62.27
2022-10-06T19:50:17.230Z,62.64
2022-10-06T19:55:22.494Z,62.64
2022-10-06T20:00:33.485Z,62.61
2022-10-06T20:05:41.806Z,62.88
2022-10-06T20:10:48.306Z,63.03
2022-10-06T20:15:58.004Z,63.04
2022-10-06T20:21:08.261Z,63.22
2022-10-06T20:26:39.194Z,63.23
2022-10-06T20:32:02.814Z,63.59
2022-10-06T20:37:27.473Z,63.64
2022-10-06T20:43:26.898Z,63.65
2022-10-06T20:48:39.569Z,63.73
2022-10-06T20:53:54.620Z,64.02
2022-10-06T20:58:58.988Z,63.98
2022-10-06T21:04:11.088Z,64.09
2022-10-06T21:09:18.547Z,64.17
2022-10-06T21:14:25.704Z,64.35
2022-10-06T21:19:34.513Z,64.29
2022-10-06T21:24:38.756Z,64.48
2022-10-06T21:29:42.750Z,64.59
2022-10-06T21:34:47.273Z,64.77
2022-10-06T21:39:51.544Z,65.00
2022-10-06T21:44:57.127Z,64.78
2022-10-06T21:50:01.594Z,64.77
2022-10-06T21:55:07.669Z,65.11
2022-10-06T22:00:15.603Z,65.12
2022-10-06T22:05:20.041Z,65.18
2022-10-06T22:10:25.666Z,65.37
2022-10-06T22:15:30.253Z,65.36
2022-10-06T22:20:35.708Z,65.44
2022-10-06T22:25:39.754Z,65.42
2022-10-06T22:30:44.465Z,65.59
2022-10-06T22:35:51.854Z,65.86
2022-10-06T22:41:00.845Z,65.73
2022-10-06T22:46:07.714Z,66.04
2022-10-06T22:51:12.257Z,65.86
2022-10-06T22:56:16.389Z,65.94
2022-10-06T23:01:21.048Z,65.98
2022-10-06T23:06:25.987Z,66.20
2022-10-06T23:11:30.118Z,66.25
2022-10-06T23:16:34.120Z,66.35
2022-10-06T23:21:39.822Z,66.21
2022-10-06T23:26:44.526Z,66.27
2022-10-06T23:31:48.865Z,66.50
2022-10-06T23:36:54.443Z,66.55
2022-10-06T23:41:59.155Z,66.65
2022-10-06T23:47:04.381Z,66.81
2022-10-06T23:52:10.707Z,66.71
2022-10-06T23:58:12.360Z,66.96
